sensor_id;sensor_type;location;lat;lon;timestamp;P1;durP1;ratioP1;P2;durP2;ratioP2
40793;SDS011;26502;51.886;15.604;2023-09-08T00:03:51;9.60;;;8.50;;
40793;SDS011;26502;51.886;15.604;2023-09-08T00:08:56;12.70;;;7.70;;
40793;SDS011;26502;51.886;15.604;2023-09-08T00:14:02;12.10;;;8.00;;
40793;SDS011;26502;51.886;15.604;2023-09-08T00:19:09;12.00;;;8.00;;
40793;SDS011;26502;51.886;15.604;2023-09-08T00:24:15;10.30;;;8.00;;
40793;SDS011;26502;51.886;15.604;2023-09-08T00:29:22;8.40;;;7.40;;
40793;SDS011;26502;51.886;15.604;2023-09-08T00:34:28;10.10;;;7.80;;
40793;SDS011;26502;51.886;15.604;2023-09-08T00:39:35;9.20;;;7.80;;
40793;SDS011;26502;51.886;15.604;2023-09-08T00:44:42;12.40;;;8.60;;
40793;SDS011;26502;51.886;15.604;2023-09-08T00:49:48;8.50;;;7.60;;
40793;SDS011;26502;51.886;15.604;2023-09-08T00:54:55;8.10;;;7.20;;
40793;SDS011;26502;51.886;15.604;2023-09-08T01:00:01;7.80;;;7.10;;
40793;SDS011;26502;51.886;15.604;2023-09-08T01:05:09;9.80;;;7.40;;
40793;SDS011;26502;51.886;15.604;2023-09-08T01:10:17;11.40;;;7.80;;
40793;SDS011;26502;51.886;15.604;2023-09-08T01:15:23;10.70;;;7.30;;
40793;SDS011;26502;51.886;15.604;2023-09-08T01:20:30;8.70;;;7.40;;
40793;SDS011;26502;51.886;15.604;2023-09-08T01:25:40;7.70;;;6.90;;
40793;SDS011;26502;51.886;15.604;2023-09-08T01:30:50;8.90;;;7.40;;
40793;SDS011;26502;51.886;15.604;2023-09-08T01:35:58;9.00;;;8.10;;
40793;SDS011;26502;51.886;15.604;2023-09-08T01:41:05;9.20;;;7.70;;
40793;SDS011;26502;51.886;15.604;2023-09-08T01:46:12;10.10;;;8.00;;
40793;SDS011;26502;51.886;15.604;2023-09-08T01:51:19;9.00;;;8.10;;
40793;SDS011;26502;51.886;15.604;2023-09-08T01:56:25;10.80;;;8.40;;
40793;SDS011;26502;51.886;15.604;2023-09-08T02:01:31;9.20;;;7.60;;
40793;SDS011;26502;51.886;15.604;2023-09-08T02:06:37;11.80;;;7.50;;
40793;SDS011;26502;51.886;15.604;2023-09-08T02:11:43;8.40;;;7.40;;
40793;SDS011;26502;51.886;15.604;2023-09-08T02:16:50;11.00;;;7.50;;
40793;SDS011;26502;51.886;15.604;2023-09-08T02:22:00;8.50;;;7.60;;
40793;SDS011;26502;51.886;15.604;2023-09-08T02:27:06;8.40;;;7.50;;
40793;SDS011;26502;51.886;15.604;2023-09-08T02:32:13;9.40;;;7.60;;
40793;SDS011;26502;51.886;15.604;2023-09-08T02:37:19;7.60;;;6.90;;
40793;SDS011;26502;51.886;15.604;2023-09-08T02:42:26;9.40;;;7.50;;
40793;SDS011;26502;51.886;15.604;2023-09-08T02:47:33;9.30;;;8.40;;
40793;SDS011;26502;51.886;15.604;2023-09-08T02:52:39;11.00;;;7.40;;
40793;SDS011;26502;51.886;15.604;2023-09-08T02:57:45;13.50;;;7.60;;
40793;SDS011;26502;51.886;15.604;2023-09-08T03:02:52;12.30;;;8.10;;
40793;SDS011;26502;51.886;15.604;2023-09-08T03:07:58;8.70;;;7.20;;
40793;SDS011;26502;51.886;15.604;2023-09-08T03:13:05;9.10;;;7.40;;
40793;SDS011;26502;51.886;15.604;2023-09-08T03:18:10;8.90;;;7.90;;
40793;SDS011;26502;51.886;15.604;2023-09-08T03:23:17;9.20;;;7.50;;
40793;SDS011;26502;51.886;15.604;2023-09-08T03:28:23;9.40;;;7.90;;
40793;SDS011;26502;51.886;15.604;2023-09-08T03:33:29;9.10;;;7.70;;
40793;SDS011;26502;51.886;15.604;2023-09-08T03:38:35;8.40;;;7.30;;
40793;SDS011;26502;51.886;15.604;2023-09-08T03:43:41;11.30;;;8.10;;
40793;SDS011;26502;51.886;15.604;2023-09-08T03:48:51;8.60;;;7.10;;
40793;SDS011;26502;51.886;15.604;2023-09-08T03:54:02;9.10;;;8.20;;
40793;SDS011;26502;51.886;15.604;2023-09-08T03:59:09;10.70;;;7.80;;
40793;SDS011;26502;51.886;15.604;2023-09-08T04:04:14;8.50;;;7.50;;
40793;SDS011;26502;51.886;15.604;2023-09-08T04:09:22;11.30;;;8.10;;
40793;SDS011;26502;51.886;15.604;2023-09-08T04:14:29;12.10;;;8.40;;
40793;SDS011;26502;51.886;15.604;2023-09-08T04:19:39;9.40;;;8.40;;
40793;SDS011;26502;51.886;15.604;2023-09-08T04:24:45;10.20;;;8.10;;
40793;SDS011;26502;51.886;15.604;2023-09-08T04:29:51;11.80;;;8.70;;
40793;SDS011;26502;51.886;15.604;2023-09-08T04:34:58;10.10;;;7.60;;
40793;SDS011;26502;51.886;15.604;2023-09-08T04:40:06;12.40;;;8.50;;
40793;SDS011;26502;51.886;15.604;2023-09-08T04:45:13;9.10;;;8.00;;
40793;SDS011;26502;51.886;15.604;2023-09-08T04:50:19;9.50;;;8.40;;
40793;SDS011;26502;51.886;15.604;2023-09-08T04:55:25;9.70;;;8.40;;
40793;SDS011;26502;51.886;15.604;2023-09-08T05:00:31;9.10;;;8.10;;
40793;SDS011;26502;51.886;15.604;2023-09-08T05:05:38;8.80;;;7.90;;
40793;SDS011;26502;51.886;15.604;2023-09-08T05:10:45;9.90;;;7.60;;
40793;SDS011;26502;51.886;15.604;2023-09-08T05:15:51;10.60;;;8.00;;
40793;SDS011;26502;51.886;15.604;2023-09-08T05:21:04;10.20;;;8.00;;
40793;SDS011;26502;51.886;15.604;2023-09-08T05:26:11;14.50;;;8.70;;
40793;SDS011;26502;51.886;15.604;2023-09-08T05:31:17;10.20;;;8.10;;
40793;SDS011;26502;51.886;15.604;2023-09-08T05:36:23;10.20;;;8.60;;
40793;SDS011;26502;51.886;15.604;2023-09-08T05:41:29;8.70;;;7.60;;
40793;SDS011;26502;51.886;15.604;2023-09-08T05:46:37;9.50;;;8.20;;
40793;SDS011;26502;51.886;15.604;2023-09-08T05:51:43;10.90;;;8.60;;
40793;SDS011;26502;51.886;15.604;2023-09-08T05:56:49;13.60;;;8.80;;
40793;SDS011;26502;51.886;15.604;2023-09-08T06:01:55;10.70;;;9.50;;
40793;SDS011;26502;51.886;15.604;2023-09-08T06:07:02;11.70;;;10.20;;
40793;SDS011;26502;51.886;15.604;2023-09-08T06:12:08;12.30;;;10.00;;
40793;SDS011;26502;51.886;15.604;2023-09-08T06:17:15;11.30;;;10.10;;
40793;SDS011;26502;51.886;15.604;2023-09-08T06:22:21;13.70;;;10.60;;
40793;SDS011;26502;51.886;15.604;2023-09-08T06:27:28;13.90;;;11.20;;
40793;SDS011;26502;51.886;15.604;2023-09-08T06:32:34;15.10;;;11.80;;
40793;SDS011;26502;51.886;15.604;2023-09-08T06:37:40;15.00;;;11.80;;
40793;SDS011;26502;51.886;15.604;2023-09-08T06:42:47;15.10;;;11.00;;
40793;SDS011;26502;51.886;15.604;2023-09-08T06:48:01;14.70;;;11.00;;
40793;SDS011;26502;51.886;15.604;2023-09-08T06:53:08;12.60;;;11.40;;
40793;SDS011;26502;51.886;15.604;2023-09-08T06:58:15;14.10;;;11.50;;
40793;SDS011;26502;51.886;15.604;2023-09-08T07:03:22;14.30;;;10.90;;
40793;SDS011;26502;51.886;15.604;2023-09-08T07:08:29;14.00;;;10.40;;
40793;SDS011;26502;51.886;15.604;2023-09-08T07:13:36;14.70;;;11.70;;
40793;SDS011;26502;51.886;15.604;2023-09-08T07:18:42;14.50;;;11.40;;
40793;SDS011;26502;51.886;15.604;2023-09-08T07:23:48;13.30;;;11.80;;
40793;SDS011;26502;51.886;15.604;2023-09-08T07:28:55;19.90;;;11.00;;
40793;SDS011;26502;51.886;15.604;2023-09-08T07:34:01;13.00;;;11.30;;
40793;SDS011;26502;51.886;15.604;2023-09-08T07:39:07;15.70;;;10.30;;
40793;SDS011;26502;51.886;15.604;2023-09-08T07:44:14;17.40;;;10.40;;
40793;SDS011;26502;51.886;15.604;2023-09-08T07:49:21;12.70;;;9.20;;
40793;SDS011;26502;51.886;15.604;2023-09-08T07:54:27;12.40;;;9.50;;
40793;SDS011;26502;51.886;15.604;2023-09-08T07:59:33;10.10;;;8.30;;
40793;SDS011;26502;51.886;15.604;2023-09-08T08:04:39;9.20;;;8.20;;
40793;SDS011;26502;51.886;15.604;2023-09-08T08:09:45;17.50;;;9.50;;
40793;SDS011;26502;51.886;15.604;2023-09-08T08:14:51;14.60;;;9.70;;
40793;SDS011;26502;51.886;15.604;2023-09-08T08:19:57;13.10;;;8.30;;
40793;SDS011;26502;51.886;15.604;2023-09-08T08:25:09;12.40;;;8.60;;
40793;SDS011;26502;51.886;15.604;2023-09-08T08:30:16;11.10;;;8.30;;
40793;SDS011;26502;51.886;15.604;2023-09-08T08:35:22;9.70;;;7.40;;
40793;SDS011;26502;51.886;15.604;2023-09-08T08:40:28;10.20;;;7.70;;
40793;SDS011;26502;51.886;15.604;2023-09-08T08:45:34;11.20;;;7.90;;
40793;SDS011;26502;51.886;15.604;2023-09-08T08:50:43;12.00;;;8.10;;
40793;SDS011;26502;51.886;15.604;2023-09-08T08:55:49;11.80;;;8.50;;
40793;SDS011;26502;51.886;15.604;2023-09-08T09:00:59;8.30;;;6.40;;
40793;SDS011;26502;51.886;15.604;2023-09-08T09:06:05;9.60;;;7.10;;
40793;SDS011;26502;51.886;15.604;2023-09-08T09:11:11;23.90;;;8.90;;
40793;SDS011;26502;51.886;15.604;2023-09-08T09:16:19;12.40;;;8.80;;
40793;SDS011;26502;51.886;15.604;2023-09-08T09:21:41;11.90;;;7.60;;
40793;SDS011;26502;51.886;15.604;2023-09-08T09:26:52;11.60;;;8.60;;
40793;SDS011;26502;51.886;15.604;2023-09-08T09:32:03;12.90;;;7.80;;
40793;SDS011;26502;51.886;15.604;2023-09-08T09:37:10;10.60;;;6.50;;
40793;SDS011;26502;51.886;15.604;2023-09-08T09:42:17;9.30;;;6.50;;
40793;SDS011;26502;51.886;15.604;2023-09-08T09:47:23;11.10;;;7.10;;
40793;SDS011;26502;51.886;15.604;2023-09-08T09:52:30;9.60;;;6.00;;
40793;SDS011;26502;51.886;15.604;2023-09-08T09:57:43;11.30;;;6.40;;
40793;SDS011;26502;51.886;15.604;2023-09-08T10:02:50;13.50;;;6.60;;
40793;SDS011;26502;51.886;15.604;2023-09-08T10:07:57;14.10;;;7.50;;
40793;SDS011;26502;51.886;15.604;2023-09-08T10:13:05;10.90;;;6.90;;
40793;SDS011;26502;51.886;15.604;2023-09-08T10:18:14;11.90;;;7.40;;
40793;SDS011;26502;51.886;15.604;2023-09-08T10:23:26;13.90;;;6.40;;
40793;SDS011;26502;51.886;15.604;2023-09-08T10:28:37;7.30;;;5.40;;
40793;SDS011;26502;51.886;15.604;2023-09-08T10:33:44;10.20;;;5.70;;
40793;SDS011;26502;51.886;15.604;2023-09-08T10:38:50;12.70;;;6.10;;
40793;SDS011;26502;51.886;15.604;2023-09-08T10:44:00;8.10;;;5.70;;
40793;SDS011;26502;51.886;15.604;2023-09-08T10:49:09;8.30;;;5.30;;
40793;SDS011;26502;51.886;15.604;2023-09-08T10:59:52;9.40;;;5.40;;
40793;SDS011;26502;51.886;15.604;2023-09-08T11:04:58;6.00;;;5.30;;
40793;SDS011;26502;51.886;15.604;2023-09-08T11:10:06;8.10;;;4.90;;
40793;SDS011;26502;51.886;15.604;2023-09-08T11:15:13;6.10;;;5.20;;
40793;SDS011;26502;51.886;15.604;2023-09-08T11:20:26;9.20;;;6.10;;
40793;SDS011;26502;51.886;15.604;2023-09-08T11:25:33;7.20;;;5.30;;
40793;SDS011;26502;51.886;15.604;2023-09-08T11:30:39;5.50;;;4.80;;
40793;SDS011;26502;51.886;15.604;2023-09-08T11:35:46;9.50;;;5.20;;
40793;SDS011;26502;51.886;15.604;2023-09-08T11:40:52;5.40;;;4.60;;
40793;SDS011;26502;51.886;15.604;2023-09-08T11:46:00;8.10;;;5.60;;
40793;SDS011;26502;51.886;15.604;2023-09-08T11:51:07;10.50;;;5.90;;
40793;SDS011;26502;51.886;15.604;2023-09-08T11:56:14;12.00;;;5.70;;
40793;SDS011;26502;51.886;15.604;2023-09-08T12:01:20;14.80;;;5.90;;
40793;SDS011;26502;51.886;15.604;2023-09-08T12:06:26;11.80;;;5.90;;
40793;SDS011;26502;51.886;15.604;2023-09-08T12:11:33;13.70;;;5.20;;
40793;SDS011;26502;51.886;15.604;2023-09-08T12:16:44;12.10;;;5.10;;
40793;SDS011;26502;51.886;15.604;2023-09-08T12:21:56;7.20;;;5.30;;
40793;SDS011;26502;51.886;15.604;2023-09-08T12:27:05;6.90;;;5.00;;
40793;SDS011;26502;51.886;15.604;2023-09-08T12:32:11;5.40;;;4.90;;
40793;SDS011;26502;51.886;15.604;2023-09-08T12:37:20;22.00;;;6.30;;
40793;SDS011;26502;51.886;15.604;2023-09-08T12:42:26;11.10;;;5.70;;
40793;SDS011;26502;51.886;15.604;2023-09-08T12:47:32;7.50;;;6.20;;
40793;SDS011;26502;51.886;15.604;2023-09-08T12:52:39;13.60;;;6.00;;
40793;SDS011;26502;51.886;15.604;2023-09-08T12:57:44;11.40;;;5.30;;
40793;SDS011;26502;51.886;15.604;2023-09-08T13:02:52;7.30;;;5.40;;
40793;SDS011;26502;51.886;15.604;2023-09-08T13:07:58;14.90;;;5.60;;
40793;SDS011;26502;51.886;15.604;2023-09-08T13:13:05;9.20;;;5.20;;
40793;SDS011;26502;51.886;15.604;2023-09-08T13:18:10;9.10;;;5.00;;
40793;SDS011;26502;51.886;15.604;2023-09-08T13:23:17;9.90;;;5.90;;
40793;SDS011;26502;51.886;15.604;2023-09-08T13:28:23;12.20;;;5.10;;
40793;SDS011;26502;51.886;15.604;2023-09-08T13:33:29;6.40;;;5.20;;
40793;SDS011;26502;51.886;15.604;2023-09-08T13:38:35;5.40;;;4.60;;
40793;SDS011;26502;51.886;15.604;2023-09-08T13:43:41;10.30;;;5.20;;
40793;SDS011;26502;51.886;15.604;2023-09-08T13:48:47;5.50;;;4.90;;
40793;SDS011;26502;51.886;15.604;2023-09-08T13:53:54;7.60;;;5.50;;
40793;SDS011;26502;51.886;15.604;2023-09-08T13:59:00;7.60;;;5.40;;
40793;SDS011;26502;51.886;15.604;2023-09-08T14:04:06;8.90;;;5.70;;
40793;SDS011;26502;51.886;15.604;2023-09-08T14:09:12;10.20;;;5.00;;
40793;SDS011;26502;51.886;15.604;2023-09-08T14:14:18;9.50;;;5.10;;
40793;SDS011;26502;51.886;15.604;2023-09-08T14:19:24;7.20;;;5.50;;
40793;SDS011;26502;51.886;15.604;2023-09-08T14:24:30;7.90;;;5.40;;
40793;SDS011;26502;51.886;15.604;2023-09-08T14:29:36;8.90;;;4.80;;
40793;SDS011;26502;51.886;15.604;2023-09-08T14:34:44;10.80;;;5.30;;
40793;SDS011;26502;51.886;15.604;2023-09-08T14:44:55;9.40;;;5.10;;
40793;SDS011;26502;51.886;15.604;2023-09-08T14:50:02;8.70;;;5.60;;
40793;SDS011;26502;51.886;15.604;2023-09-08T14:55:10;7.90;;;5.20;;
40793;SDS011;26502;51.886;15.604;2023-09-08T15:00:17;14.60;;;5.30;;
40793;SDS011;26502;51.886;15.604;2023-09-08T15:05:24;6.80;;;5.60;;
40793;SDS011;26502;51.886;15.604;2023-09-08T15:10:30;6.00;;;5.00;;
40793;SDS011;26502;51.886;15.604;2023-09-08T15:15:38;9.70;;;5.10;;
40793;SDS011;26502;51.886;15.604;2023-09-08T15:20:51;9.20;;;5.00;;
40793;SDS011;26502;51.886;15.604;2023-09-08T15:25:58;8.90;;;5.30;;
40793;SDS011;26502;51.886;15.604;2023-09-08T15:31:05;6.40;;;4.60;;
40793;SDS011;26502;51.886;15.604;2023-09-08T15:36:11;8.90;;;4.80;;
40793;SDS011;26502;51.886;15.604;2023-09-08T15:41:18;10.80;;;5.30;;
40793;SDS011;26502;51.886;15.604;2023-09-08T15:46:25;18.60;;;6.00;;
40793;SDS011;26502;51.886;15.604;2023-09-08T15:51:31;11.10;;;5.10;;
40793;SDS011;26502;51.886;15.604;2023-09-08T15:56:37;9.60;;;5.40;;
40793;SDS011;26502;51.886;15.604;2023-09-08T16:01:43;98.50;;;9.70;;
40793;SDS011;26502;51.886;15.604;2023-09-08T16:06:49;14.20;;;5.40;;
40793;SDS011;26502;51.886;15.604;2023-09-08T16:11:55;12.40;;;5.20;;
40793;SDS011;26502;51.886;15.604;2023-09-08T16:17:01;6.80;;;5.20;;
40793;SDS011;26502;51.886;15.604;2023-09-08T16:22:07;12.90;;;6.00;;
40793;SDS011;26502;51.886;15.604;2023-09-08T16:27:13;9.80;;;5.30;;
40793;SDS011;26502;51.886;15.604;2023-09-08T16:32:19;8.30;;;5.30;;
40793;SDS011;26502;51.886;15.604;2023-09-08T16:37:25;8.10;;;5.20;;
40793;SDS011;26502;51.886;15.604;2023-09-08T16:42:31;7.30;;;5.60;;
40793;SDS011;26502;51.886;15.604;2023-09-08T16:47:37;7.00;;;4.80;;
40793;SDS011;26502;51.886;15.604;2023-09-08T16:52:43;16.70;;;5.60;;
40793;SDS011;26502;51.886;15.604;2023-09-08T16:57:50;9.20;;;5.90;;
40793;SDS011;26502;51.886;15.604;2023-09-08T17:02:56;6.30;;;5.50;;
40793;SDS011;26502;51.886;15.604;2023-09-08T17:08:02;9.90;;;5.20;;
40793;SDS011;26502;51.886;15.604;2023-09-08T17:13:08;9.00;;;5.40;;
40793;SDS011;26502;51.886;15.604;2023-09-08T17:18:15;10.60;;;5.90;;
40793;SDS011;26502;51.886;15.604;2023-09-08T17:23:22;7.10;;;5.70;;
40793;SDS011;26502;51.886;15.604;2023-09-08T17:28:28;8.20;;;5.90;;
40793;SDS011;26502;51.886;15.604;2023-09-08T17:33:34;10.80;;;5.90;;
40793;SDS011;26502;51.886;15.604;2023-09-08T17:38:40;7.70;;;5.80;;
40793;SDS011;26502;51.886;15.604;2023-09-08T17:43:46;9.00;;;5.50;;
40793;SDS011;26502;51.886;15.604;2023-09-08T17:48:52;9.30;;;6.30;;
40793;SDS011;26502;51.886;15.604;2023-09-08T17:53:58;11.60;;;6.00;;
40793;SDS011;26502;51.886;15.604;2023-09-08T17:59:04;7.00;;;6.10;;
40793;SDS011;26502;51.886;15.604;2023-09-08T18:04:10;7.80;;;6.00;;
40793;SDS011;26502;51.886;15.604;2023-09-08T18:09:16;9.00;;;6.90;;
40793;SDS011;26502;51.886;15.604;2023-09-08T18:14:22;9.30;;;7.00;;
40793;SDS011;26502;51.886;15.604;2023-09-08T18:19:29;11.40;;;6.80;;
40793;SDS011;26502;51.886;15.604;2023-09-08T18:24:38;11.70;;;7.50;;
40793;SDS011;26502;51.886;15.604;2023-09-08T18:29:44;9.40;;;6.80;;
40793;SDS011;26502;51.886;15.604;2023-09-08T18:34:50;10.00;;;6.90;;
40793;SDS011;26502;51.886;15.604;2023-09-08T18:39:56;13.30;;;7.60;;
40793;SDS011;26502;51.886;15.604;2023-09-08T18:45:03;8.70;;;6.90;;
40793;SDS011;26502;51.886;15.604;2023-09-08T18:50:10;12.40;;;7.10;;
40793;SDS011;26502;51.886;15.604;2023-09-08T18:55:17;9.20;;;6.70;;
40793;SDS011;26502;51.886;15.604;2023-09-08T19:00:23;13.00;;;6.90;;
40793;SDS011;26502;51.886;15.604;2023-09-08T19:05:29;9.00;;;6.90;;
40793;SDS011;26502;51.886;15.604;2023-09-08T19:10:36;9.10;;;6.90;;
40793;SDS011;26502;51.886;15.604;2023-09-08T19:15:45;13.30;;;7.30;;
40793;SDS011;26502;51.886;15.604;2023-09-08T19:20:52;9.60;;;7.60;;
40793;SDS011;26502;51.886;15.604;2023-09-08T19:26:05;12.30;;;8.10;;
40793;SDS011;26502;51.886;15.604;2023-09-08T19:31:13;13.50;;;7.60;;
40793;SDS011;26502;51.886;15.604;2023-09-08T19:36:19;8.60;;;7.70;;
40793;SDS011;26502;51.886;15.604;2023-09-08T19:41:25;8.20;;;7.30;;
40793;SDS011;26502;51.886;15.604;2023-09-08T19:46:33;11.30;;;8.40;;
40793;SDS011;26502;51.886;15.604;2023-09-08T19:51:40;13.10;;;8.40;;
40793;SDS011;26502;51.886;15.604;2023-09-08T19:56:53;8.40;;;7.40;;
40793;SDS011;26502;51.886;15.604;2023-09-08T20:02:03;9.80;;;8.80;;
40793;SDS011;26502;51.886;15.604;2023-09-08T20:07:12;14.20;;;8.00;;
40793;SDS011;26502;51.886;15.604;2023-09-08T20:12:22;12.40;;;9.00;;
40793;SDS011;26502;51.886;15.604;2023-09-08T20:17:28;13.40;;;8.60;;
40793;SDS011;26502;51.886;15.604;2023-09-08T20:22:34;11.40;;;8.00;;
40793;SDS011;26502;51.886;15.604;2023-09-08T20:27:40;12.30;;;8.20;;
40793;SDS011;26502;51.886;15.604;2023-09-08T20:32:46;11.90;;;8.80;;
40793;SDS011;26502;51.886;15.604;2023-09-08T20:37:53;13.30;;;8.90;;
40793;SDS011;26502;51.886;15.604;2023-09-08T20:42:59;11.20;;;9.00;;
40793;SDS011;26502;51.886;15.604;2023-09-08T20:48:05;11.00;;;8.90;;
40793;SDS011;26502;51.886;15.604;2023-09-08T20:53:12;10.10;;;7.80;;
40793;SDS011;26502;51.886;15.604;2023-09-08T20:58:17;11.30;;;8.20;;
40793;SDS011;26502;51.886;15.604;2023-09-08T21:03:24;11.70;;;8.00;;
40793;SDS011;26502;51.886;15.604;2023-09-08T21:08:33;9.60;;;8.20;;
40793;SDS011;26502;51.886;15.604;2023-09-08T21:13:46;12.10;;;8.50;;
40793;SDS011;26502;51.886;15.604;2023-09-08T21:18:52;12.20;;;8.10;;
40793;SDS011;26502;51.886;15.604;2023-09-08T21:24:02;13.40;;;8.70;;
40793;SDS011;26502;51.886;15.604;2023-09-08T21:29:19;8.80;;;7.40;;
40793;SDS011;26502;51.886;15.604;2023-09-08T21:34:39;9.40;;;8.10;;
40793;SDS011;26502;51.886;15.604;2023-09-08T21:39:45;10.20;;;8.00;;
40793;SDS011;26502;51.886;15.604;2023-09-08T21:44:51;9.60;;;8.50;;
40793;SDS011;26502;51.886;15.604;2023-09-08T21:49:57;9.40;;;7.80;;
40793;SDS011;26502;51.886;15.604;2023-09-08T21:55:05;9.30;;;8.20;;
40793;SDS011;26502;51.886;15.604;2023-09-08T22:00:14;11.20;;;7.10;;
40793;SDS011;26502;51.886;15.604;2023-09-08T22:05:23;11.80;;;8.20;;
40793;SDS011;26502;51.886;15.604;2023-09-08T22:10:29;12.00;;;7.70;;
40793;SDS011;26502;51.886;15.604;2023-09-08T22:15:36;11.20;;;7.30;;
40793;SDS011;26502;51.886;15.604;2023-09-08T22:20:42;14.10;;;8.30;;
40793;SDS011;26502;51.886;15.604;2023-09-08T22:25:48;10.40;;;7.90;;
40793;SDS011;26502;51.886;15.604;2023-09-08T22:30:54;10.40;;;8.00;;
40793;SDS011;26502;51.886;15.604;2023-09-08T22:36:00;12.00;;;7.30;;
40793;SDS011;26502;51.886;15.604;2023-09-08T22:41:06;9.60;;;7.60;;
40793;SDS011;26502;51.886;15.604;2023-09-08T22:46:11;8.90;;;6.90;;
40793;SDS011;26502;51.886;15.604;2023-09-08T22:51:17;8.30;;;7.10;;
40793;SDS011;26502;51.886;15.604;2023-09-08T22:56:23;8.90;;;7.90;;
40793;SDS011;26502;51.886;15.604;2023-09-08T23:01:29;12.40;;;8.60;;
40793;SDS011;26502;51.886;15.604;2023-09-08T23:06:35;8.50;;;7.60;;
40793;SDS011;26502;51.886;15.604;2023-09-08T23:11:41;8.60;;;7.70;;
40793;SDS011;26502;51.886;15.604;2023-09-08T23:16:47;12.20;;;7.30;;
40793;SDS011;26502;51.886;15.604;2023-09-08T23:21:53;14.90;;;7.40;;
40793;SDS011;26502;51.886;15.604;2023-09-08T23:26:59;8.40;;;7.50;;
40793;SDS011;26502;51.886;15.604;2023-09-08T23:32:05;11.80;;;7.70;;
40793;SDS011;26502;51.886;15.604;2023-09-08T23:37:12;9.50;;;7.50;;
40793;SDS011;26502;51.886;15.604;2023-09-08T23:42:19;10.00;;;7.80;;
40793;SDS011;26502;51.886;15.604;2023-09-08T23:47:24;8.70;;;7.80;;
40793;SDS011;26502;51.886;15.604;2023-09-08T23:52:30;12.20;;;7.30;;
40793;SDS011;26502;51.886;15.604;2023-09-08T23:57:38;11.20;;;8.10;;
